createdAt,value
2019-01-30T00:00:11.202Z,0.00
2019-01-30T00:01:11.208Z,0.00
2019-01-30T00:02:11.160Z,0.00
2019-01-30T00:03:11.172Z,0.00
2019-01-30T00:04:11.136Z,0.00
2019-01-30T00:05:11.131Z,0.00
2019-01-30T00:06:11.158Z,0.00
2019-01-30T00:07:11.111Z,0.00
2019-01-30T00:08:11.093Z,0.00
2019-01-30T00:09:11.082Z,0.00
2019-01-30T00:10:11.053Z,0.00
2019-01-30T00:11:11.093Z,0.00
2019-01-30T00:12:11.052Z,0.00
2019-01-30T00:13:11.065Z,0.00
2019-01-30T00:14:11.037Z,0.00
2019-01-30T00:15:11.015Z,0.00
2019-01-30T00:16:11.058Z,0.00
2019-01-30T00:17:10.974Z,0.00
2019-01-30T00:18:11.011Z,0.00
2019-01-30T00:19:11.046Z,0.00
2019-01-30T00:20:10.957Z,0.00
2019-01-30T00:21:10.951Z,0.00
2019-01-30T00:22:11.042Z,0.00
2019-01-30T00:23:10.936Z,0.00
2019-01-30T00:24:10.924Z,0.00
2019-01-30T00:25:10.899Z,0.00
2019-01-30T00:26:10.940Z,0.00
2019-01-30T00:27:10.905Z,0.00
2019-01-30T00:28:10.943Z,0.00
2019-01-30T00:29:10.884Z,0.00
2019-01-30T00:30:10.835Z,0.00
2019-01-30T00:31:10.837Z,0.00
2019-01-30T00:32:11.099Z,0.00
2019-01-30T00:33:10.803Z,0.00
2019-01-30T00:34:10.815Z,0.00
2019-01-30T00:35:10.775Z,0.00
2019-01-30T00:36:10.794Z,0.00
2019-01-30T00:37:10.771Z,0.00
2019-01-30T00:38:10.807Z,0.00
2019-01-30T00:39:10.732Z,0.00
2019-01-30T00:40:10.776Z,0.00
2019-01-30T00:41:10.733Z,0.00
2019-01-30T00:42:10.790Z,0.00
2019-01-30T00:43:10.715Z,0.00
2019-01-30T00:44:10.722Z,0.00
2019-01-30T00:45:10.699Z,0.00
2019-01-30T00:46:10.706Z,0.00
2019-01-30T00:47:15.993Z,0.00
2019-01-30T00:48:11.653Z,0.00
2019-01-30T00:49:10.646Z,0.00
2019-01-30T00:50:10.672Z,0.00
2019-01-30T00:51:10.632Z,0.00
2019-01-30T00:52:10.627Z,0.00
2019-01-30T00:53:10.661Z,0.00
2019-01-30T00:54:10.643Z,0.00
2019-01-30T00:55:10.609Z,0.00
2019-01-30T00:56:10.572Z,0.00
2019-01-30T00:57:10.545Z,0.00
2019-01-30T00:58:10.636Z,0.00
2019-01-30T00:59:10.541Z,0.00
2019-01-30T01:00:14.509Z,0.00
2019-01-30T01:01:10.542Z,0.00
2019-01-30T01:02:10.535Z,0.00
2019-01-30T01:03:10.557Z,0.00
2019-01-30T01:04:10.507Z,0.00
2019-01-30T01:05:10.506Z,0.00
2019-01-30T01:06:10.468Z,0.00
2019-01-30T01:07:10.469Z,0.00
2019-01-30T01:08:10.467Z,0.00
2019-01-30T01:09:10.464Z,0.00
2019-01-30T01:10:10.495Z,0.00
2019-01-30T01:11:10.441Z,0.00
2019-01-30T01:12:10.400Z,0.00
2019-01-30T01:13:10.391Z,0.00
2019-01-30T01:14:10.436Z,0.00
2019-01-30T01:15:10.395Z,0.00
2019-01-30T01:16:10.355Z,0.00
2019-01-30T01:17:10.368Z,0.00
2019-01-30T01:18:10.427Z,0.00
2019-01-30T01:19:10.353Z,0.00
2019-01-30T01:20:10.386Z,0.00
2019-01-30T01:21:10.280Z,0.00
2019-01-30T01:22:10.298Z,0.00
2019-01-30T01:23:10.337Z,0.00
2019-01-30T01:24:10.493Z,0.00
2019-01-30T01:25:10.284Z,0.00
2019-01-30T01:26:10.298Z,0.00
2019-01-30T01:27:10.268Z,0.00
2019-01-30T01:28:10.275Z,0.00
2019-01-30T01:29:10.225Z,0.00
2019-01-30T01:30:10.559Z,0.00
2019-01-30T01:31:10.239Z,0.00
2019-01-30T01:32:10.202Z,0.00
2019-01-30T01:33:10.199Z,0.00
2019-01-30T01:34:10.205Z,0.00
2019-01-30T01:35:10.177Z,0.00
2019-01-30T01:36:10.210Z,0.00
2019-01-30T01:37:10.154Z,0.00
2019-01-30T01:38:10.118Z,0.00
2019-01-30T01:39:10.125Z,0.00
2019-01-30T01:40:10.128Z,0.00
2019-01-30T01:41:10.144Z,0.00
2019-01-30T01:42:10.105Z,0.00
2019-01-30T01:43:10.077Z,0.00
2019-01-30T01:44:10.068Z,0.00
2019-01-30T01:45:10.126Z,0.00
2019-01-30T01:46:10.138Z,0.00
2019-01-30T01:47:10.050Z,0.00
2019-01-30T01:48:10.087Z,0.00
2019-01-30T01:49:09.991Z,0.00
2019-01-30T01:50:09.993Z,0.00
2019-01-30T01:51:10.039Z,0.00
2019-01-30T01:52:10.016Z,0.00
2019-01-30T01:53:09.958Z,0.00
2019-01-30T01:54:09.952Z,0.00
2019-01-30T01:55:10.002Z,0.00
2019-01-30T01:56:09.983Z,0.00
2019-01-30T01:57:09.939Z,0.00
2019-01-30T01:58:09.917Z,0.00
2019-01-30T01:59:09.916Z,0.00
2019-01-30T02:00:10.015Z,0.00
2019-01-30T02:01:09.893Z,0.00
2019-01-30T02:02:09.892Z,0.00
2019-01-30T02:03:09.880Z,0.00
2019-01-30T02:04:09.861Z,0.00
2019-01-30T02:05:09.822Z,0.00
2019-01-30T02:06:09.874Z,0.00
2019-01-30T02:07:09.802Z,0.00
2019-01-30T02:08:09.777Z,0.00
2019-01-30T02:09:09.809Z,0.00
2019-01-30T02:10:09.776Z,0.00
2019-01-30T02:11:09.801Z,0.00
2019-01-30T02:12:09.758Z,0.00
2019-01-30T02:13:09.738Z,0.00
2019-01-30T02:14:09.733Z,0.00
2019-01-30T02:15:09.729Z,0.00
2019-01-30T02:16:09.710Z,0.00
2019-01-30T02:17:09.739Z,0.00
2019-01-30T02:18:09.722Z,0.00
2019-01-30T02:19:09.679Z,0.00
2019-01-30T02:20:09.660Z,0.00
2019-01-30T02:21:09.667Z,0.00
2019-01-30T02:22:09.716Z,0.00
2019-01-30T02:23:09.634Z,0.00
2019-01-30T02:24:09.667Z,0.00
2019-01-30T02:25:09.646Z,0.00
2019-01-30T02:26:09.616Z,0.00
2019-01-30T02:27:09.641Z,0.00
2019-01-30T02:28:09.585Z,0.00
2019-01-30T02:29:09.583Z,0.00
2019-01-30T02:30:09.565Z,0.00
2019-01-30T02:31:09.559Z,0.00
2019-01-30T02:32:09.613Z,0.00
2019-01-30T02:33:09.562Z,0.00
2019-01-30T02:34:09.552Z,0.00
2019-01-30T02:35:09.510Z,0.00
2019-01-30T02:36:09.517Z,0.00
2019-01-30T02:37:09.545Z,0.00
2019-01-30T02:38:09.503Z,0.00
2019-01-30T02:39:09.488Z,0.00
2019-01-30T02:40:09.453Z,0.00
2019-01-30T02:41:09.442Z,0.00
2019-01-30T02:42:09.435Z,0.00
2019-01-30T02:43:09.459Z,0.00
2019-01-30T02:44:09.404Z,0.00
2019-01-30T02:45:09.405Z,0.00
2019-01-30T02:46:09.397Z,0.00
2019-01-30T02:47:09.378Z,0.00
2019-01-30T02:48:09.414Z,0.00
2019-01-30T02:49:09.358Z,0.00
2019-01-30T02:50:09.349Z,0.00
2019-01-30T02:51:09.400Z,0.00
2019-01-30T02:52:09.330Z,0.00
2019-01-30T02:53:09.373Z,0.00
2019-01-30T02:54:09.322Z,0.00
2019-01-30T02:55:09.311Z,0.00
2019-01-30T02:56:09.359Z,0.00
2019-01-30T02:57:09.330Z,0.00
2019-01-30T02:58:09.252Z,0.00
2019-01-30T02:59:09.264Z,0.00
2019-01-30T03:00:09.249Z,0.00
2019-01-30T03:01:09.225Z,0.00
2019-01-30T03:02:09.229Z,0.00
2019-01-30T03:03:09.216Z,0.00
2019-01-30T03:04:09.264Z,0.00
2019-01-30T03:05:09.201Z,0.00
2019-01-30T03:06:09.169Z,0.00
2019-01-30T03:07:09.182Z,0.00
2019-01-30T03:08:09.205Z,0.00
2019-01-30T03:09:09.237Z,0.00
2019-01-30T03:10:09.127Z,0.00
2019-01-30T03:11:09.153Z,0.00
2019-01-30T03:12:09.120Z,0.00
2019-01-30T03:13:09.152Z,0.00
2019-01-30T03:14:09.156Z,0.00
2019-01-30T03:15:09.114Z,0.00
2019-01-30T03:16:09.104Z,0.00
2019-01-30T03:17:09.108Z,0.00
2019-01-30T03:18:09.130Z,0.00
2019-01-30T03:19:09.050Z,0.00
2019-01-30T03:20:09.065Z,0.00
2019-01-30T03:21:09.079Z,0.00
2019-01-30T03:22:09.043Z,0.00
2019-01-30T03:23:09.059Z,0.00
2019-01-30T03:24:09.045Z,0.00
2019-01-30T03:25:09.053Z,0.00
2019-01-30T03:26:09.030Z,0.00
2019-01-30T03:27:08.963Z,0.00
2019-01-30T03:28:08.971Z,0.00
2019-01-30T03:29:09.028Z,0.00
2019-01-30T03:30:09.002Z,0.00
2019-01-30T03:31:19.395Z,0.00
2019-01-30T03:32:08.891Z,0.00
2019-01-30T03:33:08.880Z,0.00
2019-01-30T03:34:08.869Z,0.00
2019-01-30T03:35:08.862Z,0.00
2019-01-30T03:36:08.895Z,0.00
2019-01-30T03:37:08.844Z,0.00
2019-01-30T03:38:08.852Z,0.00
2019-01-30T03:39:08.818Z,0.00
2019-01-30T03:40:08.811Z,0.00
2019-01-30T03:41:08.827Z,0.00
2019-01-30T03:42:08.787Z,0.00
2019-01-30T03:43:08.775Z,0.00
2019-01-30T03:44:08.775Z,0.00
2019-01-30T03:45:08.781Z,0.00
2019-01-30T03:46:08.752Z,0.00
2019-01-30T03:47:08.734Z,0.00
2019-01-30T03:48:08.724Z,0.00
2019-01-30T03:49:08.719Z,0.00
2019-01-30T03:50:08.800Z,0.00
2019-01-30T03:51:08.712Z,0.00
2019-01-30T03:52:08.681Z,0.00
2019-01-30T03:53:08.671Z,0.00
2019-01-30T03:54:08.660Z,0.00
2019-01-30T03:55:08.650Z,0.00
2019-01-30T03:56:08.664Z,0.00
2019-01-30T03:57:08.630Z,0.00
2019-01-30T03:58:08.642Z,0.00
2019-01-30T03:59:08.609Z,0.00
2019-01-30T04:00:08.600Z,0.00
2019-01-30T04:01:08.639Z,0.00
2019-01-30T04:02:08.573Z,0.00
2019-01-30T04:03:08.595Z,0.00
2019-01-30T04:04:08.563Z,0.00
2019-01-30T04:05:08.546Z,0.00
2019-01-30T04:06:08.556Z,0.00
2019-01-30T04:07:08.558Z,0.00
2019-01-30T04:08:08.510Z,0.00
2019-01-30T04:09:08.507Z,0.00
2019-01-30T04:10:08.506Z,0.00
2019-01-30T04:11:08.511Z,0.00
2019-01-30T04:12:08.482Z,0.00
2019-01-30T04:13:08.477Z,0.00
2019-01-30T04:14:08.463Z,0.00
2019-01-30T04:15:08.451Z,0.00
2019-01-30T04:16:08.456Z,0.00
2019-01-30T04:17:08.429Z,0.00
2019-01-30T04:18:08.430Z,0.00
2019-01-30T04:19:08.405Z,0.00
2019-01-30T04:20:08.388Z,0.00
2019-01-30T04:21:08.400Z,0.00
2019-01-30T04:22:08.392Z,0.00
2019-01-30T04:23:08.362Z,0.00
2019-01-30T04:24:08.388Z,0.00
2019-01-30T04:25:08.340Z,0.00
2019-01-30T04:26:08.324Z,0.00
2019-01-30T04:27:08.345Z,0.00
2019-01-30T04:28:08.309Z,0.00
2019-01-30T04:29:08.294Z,0.00
2019-01-30T04:30:08.329Z,0.00
2019-01-30T04:31:08.276Z,0.00
2019-01-30T04:32:08.270Z,0.00
2019-01-30T04:33:08.283Z,0.00
2019-01-30T04:34:08.353Z,0.00
2019-01-30T04:35:08.240Z,0.00
2019-01-30T04:36:08.249Z,0.00
2019-01-30T04:37:08.239Z,0.00
2019-01-30T04:38:08.224Z,0.00
2019-01-30T04:39:08.194Z,0.00
2019-01-30T04:40:08.186Z,0.00
2019-01-30T04:41:08.208Z,0.00
2019-01-30T04:42:08.173Z,0.00
2019-01-30T04:43:08.180Z,0.00
2019-01-30T04:44:08.145Z,0.00
2019-01-30T04:45:08.127Z,0.00
2019-01-30T04:46:08.153Z,0.00
2019-01-30T04:47:08.106Z,0.00
2019-01-30T04:48:08.128Z,0.00
2019-01-30T04:49:08.088Z,0.00
2019-01-30T04:50:08.083Z,0.00
2019-01-30T04:51:08.093Z,0.00
2019-01-30T04:52:08.060Z,0.00
2019-01-30T04:53:08.065Z,0.00
2019-01-30T04:54:08.035Z,0.00
2019-01-30T04:55:08.059Z,0.00
2019-01-30T04:56:08.016Z,0.00
2019-01-30T04:57:08.003Z,0.00
2019-01-30T04:58:08.179Z,0.00
2019-01-30T04:59:07.980Z,0.00
2019-01-30T05:00:07.969Z,0.00
2019-01-30T05:01:07.967Z,0.00
2019-01-30T05:02:07.958Z,0.00
2019-01-30T05:03:07.944Z,0.00
2019-01-30T05:04:08.154Z,0.00
2019-01-30T05:05:07.920Z,0.00
2019-01-30T05:06:07.910Z,0.00
2019-01-30T05:07:07.896Z,0.00
2019-01-30T05:08:07.905Z,0.00
2019-01-30T05:09:07.886Z,0.00
2019-01-30T05:10:07.897Z,0.00
2019-01-30T05:11:07.859Z,0.00
2019-01-30T05:12:07.861Z,0.00
2019-01-30T05:13:07.835Z,0.00
2019-01-30T05:14:07.864Z,0.00
2019-01-30T05:15:07.819Z,0.00
2019-01-30T05:16:07.805Z,0.00
2019-01-30T05:17:07.794Z,0.00
2019-01-30T05:18:07.795Z,0.00
2019-01-30T05:19:07.781Z,0.00
2019-01-30T05:20:09.625Z,0.00
2019-01-30T05:21:07.756Z,0.00
2019-01-30T05:22:07.758Z,0.00
2019-01-30T05:23:07.737Z,0.00
2019-01-30T05:24:07.719Z,0.00
2019-01-30T05:25:07.754Z,0.00
2019-01-30T05:26:07.704Z,0.00
2019-01-30T05:27:07.693Z,0.00
2019-01-30T05:28:07.677Z,0.00
2019-01-30T05:29:07.686Z,0.00
2019-01-30T05:30:07.684Z,0.00
2019-01-30T05:31:07.677Z,0.00
2019-01-30T05:32:07.650Z,0.00
2019-01-30T05:33:07.629Z,0.00
2019-01-30T05:34:07.616Z,0.00
2019-01-30T05:35:07.630Z,0.00
2019-01-30T05:36:07.597Z,0.00
2019-01-30T05:37:07.625Z,0.00
2019-01-30T05:38:07.577Z,0.00
2019-01-30T05:39:07.568Z,0.00
2019-01-30T05:40:07.564Z,0.00
2019-01-30T05:41:07.566Z,0.00
2019-01-30T05:42:07.534Z,0.00
2019-01-30T05:43:07.528Z,0.00
2019-01-30T05:44:07.520Z,0.00
2019-01-30T05:45:07.501Z,0.00
2019-01-30T05:46:07.515Z,0.00
2019-01-30T05:47:07.481Z,0.00
2019-01-30T05:48:07.474Z,0.00
2019-01-30T05:49:07.465Z,0.00
2019-01-30T05:50:07.446Z,0.00
2019-01-30T05:51:07.475Z,0.00
2019-01-30T05:52:07.430Z,0.00
2019-01-30T05:53:07.420Z,0.00
2019-01-30T05:54:07.406Z,0.00
2019-01-30T05:55:07.399Z,0.00
2019-01-30T05:56:07.389Z,0.00
2019-01-30T05:57:07.430Z,0.00
2019-01-30T05:58:07.368Z,0.00
2019-01-30T05:59:07.355Z,0.00
2019-01-30T06:00:07.352Z,0.00
2019-01-30T06:01:07.354Z,0.00
2019-01-30T06:02:12.062Z,0.00
2019-01-30T06:03:08.316Z,0.00
2019-01-30T06:04:07.307Z,0.00
2019-01-30T06:05:07.292Z,0.00
2019-01-30T06:06:07.313Z,0.00
2019-01-30T06:07:07.268Z,0.00
2019-01-30T06:08:07.258Z,0.00
2019-01-30T06:09:07.254Z,0.00
2019-01-30T06:10:07.234Z,0.00
2019-01-30T06:11:07.228Z,0.00
2019-01-30T06:12:07.254Z,0.00
2019-01-30T06:13:07.263Z,0.00
2019-01-30T06:14:07.475Z,0.00
2019-01-30T06:15:07.185Z,0.00
2019-01-30T06:16:07.174Z,0.00
2019-01-30T06:17:09.541Z,0.00
2019-01-30T06:18:07.170Z,0.00
2019-01-30T06:19:07.153Z,0.00
2019-01-30T06:20:07.159Z,0.00
2019-01-30T06:21:07.124Z,0.00
2019-01-30T06:22:07.125Z,0.00
2019-01-30T06:23:07.112Z,0.00
2019-01-30T06:24:07.091Z,0.00
2019-01-30T06:25:07.107Z,0.00
2019-01-30T06:26:07.097Z,0.00
2019-01-30T06:27:07.073Z,0.00
2019-01-30T06:28:07.058Z,0.00
2019-01-30T06:29:07.040Z,0.00
2019-01-30T06:30:07.034Z,0.00
2019-01-30T06:31:07.044Z,0.00
2019-01-30T06:32:07.048Z,0.00
2019-01-30T06:33:07.008Z,0.00
2019-01-30T06:34:06.996Z,0.00
2019-01-30T06:35:06.980Z,0.00
2019-01-30T06:36:06.978Z,0.00
2019-01-30T06:37:06.978Z,0.00
2019-01-30T06:38:06.969Z,0.00
2019-01-30T06:39:06.942Z,0.00
2019-01-30T06:40:06.959Z,0.00
2019-01-30T06:41:06.936Z,0.00
2019-01-30T06:42:06.907Z,0.00
2019-01-30T06:43:06.899Z,0.00
2019-01-30T06:44:06.889Z,0.00
2019-01-30T06:45:06.867Z,0.00
2019-01-30T06:46:06.860Z,0.00
2019-01-30T06:47:06.886Z,0.00
2019-01-30T06:48:06.894Z,0.00
2019-01-30T06:49:06.828Z,0.00
2019-01-30T06:50:06.816Z,4.00
2019-01-30T06:51:06.805Z,4.00
2019-01-30T06:52:06.797Z,0.00
2019-01-30T06:53:06.812Z,0.00
2019-01-30T06:54:06.778Z,4.00
2019-01-30T06:55:06.777Z,4.00
2019-01-30T06:56:06.761Z,4.00
2019-01-30T06:57:06.747Z,4.00
2019-01-30T06:58:06.758Z,4.00
2019-01-30T06:59:06.724Z,8.00
2019-01-30T07:00:06.713Z,8.00
2019-01-30T07:01:06.704Z,8.00
2019-01-30T07:02:06.702Z,8.00
2019-01-30T07:03:06.683Z,8.00
2019-01-30T07:04:06.694Z,12.00
2019-01-30T07:05:06.661Z,12.00
2019-01-30T07:06:07.836Z,16.00
2019-01-30T07:07:06.641Z,16.00
2019-01-30T07:08:06.628Z,16.00
2019-01-30T07:09:06.647Z,20.00
2019-01-30T07:10:06.623Z,20.00
2019-01-30T07:11:10.750Z,24.00
2019-01-30T07:12:06.590Z,24.00
2019-01-30T07:13:06.597Z,28.00
2019-01-30T07:14:06.599Z,28.00
2019-01-30T07:15:06.557Z,28.00
2019-01-30T07:16:06.547Z,28.00
2019-01-30T07:17:06.533Z,32.00
2019-01-30T07:18:06.540Z,36.00
2019-01-30T07:19:06.542Z,36.00
2019-01-30T07:20:06.501Z,36.00
2019-01-30T07:21:06.524Z,40.00
2019-01-30T07:22:06.479Z,44.00
2019-01-30T07:23:06.466Z,48.00
2019-01-30T07:24:06.528Z,48.00
2019-01-30T07:25:06.455Z,52.00
2019-01-30T07:26:06.443Z,56.00
2019-01-30T07:27:06.458Z,60.00
2019-01-30T07:28:06.421Z,64.00
2019-01-30T07:29:06.438Z,68.00
2019-01-30T07:30:06.395Z,72.00
2019-01-30T07:31:06.389Z,76.00
2019-01-30T07:32:06.370Z,84.00
2019-01-30T07:33:06.376Z,88.00
2019-01-30T07:34:06.384Z,92.00
2019-01-30T07:35:06.340Z,96.00
2019-01-30T07:36:06.364Z,104.00
2019-01-30T07:37:06.332Z,112.00
2019-01-30T07:38:06.319Z,116.00
2019-01-30T07:39:06.324Z,124.00
2019-01-30T07:40:06.284Z,128.00
2019-01-30T07:41:06.317Z,132.00
2019-01-30T07:42:06.268Z,140.00
2019-01-30T07:43:06.281Z,148.00
2019-01-30T07:44:06.265Z,156.00
2019-01-30T07:45:06.517Z,164.00
2019-01-30T07:46:06.228Z,172.00
2019-01-30T07:47:06.213Z,180.00
2019-01-30T07:48:06.203Z,192.00
2019-01-30T07:49:06.217Z,204.00
2019-01-30T07:50:06.190Z,212.00
2019-01-30T07:51:06.195Z,224.00
2019-01-30T07:52:06.156Z,232.00
2019-01-30T07:53:06.153Z,248.00
2019-01-30T07:54:06.141Z,260.00
2019-01-30T07:55:06.166Z,272.00
2019-01-30T07:56:06.131Z,288.00
2019-01-30T07:57:06.108Z,300.00
2019-01-30T07:58:06.103Z,320.00
2019-01-30T07:59:06.098Z,336.00
2019-01-30T08:00:06.078Z,352.00
2019-01-30T08:01:06.279Z,368.00
2019-01-30T08:02:06.062Z,376.00
2019-01-30T08:03:06.052Z,384.00
2019-01-30T08:04:06.039Z,392.00
2019-01-30T08:05:06.020Z,396.00
2019-01-30T08:06:06.017Z,404.00
2019-01-30T08:07:06.030Z,404.00
2019-01-30T08:08:06.001Z,404.00
2019-01-30T08:09:05.980Z,408.00
2019-01-30T08:10:05.975Z,408.00
2019-01-30T08:11:07.484Z,408.00
2019-01-30T08:12:05.951Z,412.00
2019-01-30T08:13:05.963Z,416.00
2019-01-30T08:14:05.927Z,428.00
2019-01-30T08:15:05.935Z,448.00
2019-01-30T08:16:05.909Z,472.00
2019-01-30T08:17:05.894Z,484.00
2019-01-30T08:18:05.890Z,520.00
2019-01-30T08:19:05.901Z,548.00
2019-01-30T08:20:05.864Z,572.00
2019-01-30T08:21:05.899Z,580.00
2019-01-30T08:22:05.840Z,596.00
2019-01-30T08:23:05.867Z,588.00
2019-01-30T08:24:06.194Z,572.00
2019-01-30T08:25:05.840Z,548.00
2019-01-30T08:26:06.161Z,548.00
2019-01-30T08:27:05.840Z,552.00
2019-01-30T08:28:05.872Z,564.00
2019-01-30T08:29:05.946Z,568.00
2019-01-30T08:30:05.859Z,572.00
2019-01-30T08:31:06.125Z,568.00
2019-01-30T08:32:05.771Z,572.00
2019-01-30T08:33:06.136Z,576.00
2019-01-30T08:34:05.722Z,580.00
2019-01-30T08:35:05.706Z,592.00
2019-01-30T08:36:05.715Z,600.00
2019-01-30T08:37:05.691Z,620.00
2019-01-30T08:38:05.753Z,636.00
2019-01-30T08:39:05.677Z,656.00
2019-01-30T08:40:05.655Z,676.00
2019-01-30T08:41:05.652Z,692.00
2019-01-30T08:42:05.651Z,708.00
2019-01-30T08:43:05.645Z,724.00
2019-01-30T08:44:05.603Z,732.00
2019-01-30T08:45:05.594Z,752.00
2019-01-30T08:46:05.582Z,764.00
2019-01-30T08:47:05.570Z,780.00
2019-01-30T08:48:05.612Z,792.00
2019-01-30T08:49:05.555Z,804.00
2019-01-30T08:50:05.543Z,820.00
2019-01-30T08:51:05.538Z,836.00
2019-01-30T08:52:05.534Z,844.00
2019-01-30T08:53:05.613Z,848.00
2019-01-30T08:54:05.520Z,848.00
2019-01-30T08:55:05.506Z,848.00
2019-01-30T08:56:05.476Z,852.00
2019-01-30T08:57:05.470Z,864.00
2019-01-30T08:58:05.479Z,876.00
2019-01-30T08:59:05.864Z,888.00
2019-01-30T09:00:05.431Z,900.00
2019-01-30T09:01:05.420Z,916.00
2019-01-30T09:02:05.429Z,940.00
2019-01-30T09:03:14.504Z,968.00
2019-01-30T09:04:06.392Z,992.00
2019-01-30T09:05:05.381Z,1020.00
2019-01-30T09:06:05.370Z,1040.00
2019-01-30T09:07:05.355Z,1064.00
2019-01-30T09:08:05.378Z,1084.00
2019-01-30T09:09:05.344Z,1104.00
2019-01-30T09:10:05.321Z,1116.00
2019-01-30T09:11:05.311Z,1124.00
2019-01-30T09:12:05.319Z,1128.00
2019-01-30T09:13:05.329Z,1140.00
2019-01-30T09:14:05.300Z,1148.00
2019-01-30T09:15:05.271Z,1160.00
2019-01-30T09:16:05.261Z,1172.00
2019-01-30T09:17:08.567Z,1180.00
2019-01-30T09:18:05.257Z,1188.00
2019-01-30T09:19:05.226Z,1192.00
2019-01-30T09:20:05.229Z,1204.00
2019-01-30T09:21:05.314Z,1208.00
2019-01-30T09:22:05.191Z,1212.00
2019-01-30T09:23:05.186Z,1220.00
2019-01-30T09:24:05.205Z,1232.00
2019-01-30T09:25:05.158Z,1240.00
2019-01-30T09:26:05.150Z,1252.00
2019-01-30T09:27:05.144Z,1272.00
2019-01-30T09:28:05.142Z,1284.00
2019-01-30T09:29:05.110Z,1304.00
2019-01-30T09:30:05.108Z,1316.00
2019-01-30T09:31:05.118Z,1332.00
2019-01-30T09:32:05.074Z,1340.00
2019-01-30T09:33:05.075Z,1352.00
2019-01-30T09:34:05.065Z,1356.00
2019-01-30T09:35:05.051Z,1352.00
2019-01-30T09:36:05.108Z,1340.00
2019-01-30T09:37:05.020Z,1332.00
2019-01-30T09:38:05.068Z,1316.00
2019-01-30T09:39:05.003Z,1300.00
2019-01-30T09:40:05.000Z,1284.00
2019-01-30T09:41:04.993Z,1264.00
2019-01-30T09:42:05.012Z,1244.00
2019-01-30T09:43:04.974Z,1220.00
2019-01-30T09:44:04.988Z,1196.00
2019-01-30T09:45:04.979Z,1172.00
2019-01-30T09:46:04.943Z,1148.00
2019-01-30T09:47:04.912Z,1132.00
2019-01-30T09:48:04.904Z,1120.00
2019-01-30T09:49:04.891Z,1116.00
2019-01-30T09:50:04.914Z,1116.00
2019-01-30T09:51:04.912Z,1116.00
2019-01-30T09:52:04.862Z,1124.00
2019-01-30T09:53:04.847Z,1128.00
2019-01-30T09:54:04.853Z,1132.00
2019-01-30T09:55:04.899Z,1140.00
2019-01-30T09:56:04.815Z,1136.00
2019-01-30T09:57:04.800Z,1140.00
2019-01-30T09:58:04.790Z,1140.00
2019-01-30T09:59:04.792Z,1148.00
2019-01-30T10:00:04.769Z,1156.00
2019-01-30T10:01:04.780Z,1168.00
2019-01-30T10:02:04.748Z,1184.00
2019-01-30T10:03:04.742Z,1200.00
2019-01-30T10:04:04.723Z,1220.00
2019-01-30T10:05:04.742Z,1236.00
2019-01-30T10:06:04.795Z,1248.00
2019-01-30T10:07:04.699Z,1252.00
2019-01-30T10:08:04.772Z,1252.00
2019-01-30T10:09:04.667Z,1248.00
2019-01-30T10:10:04.660Z,1236.00
2019-01-30T10:11:04.671Z,1212.00
2019-01-30T10:12:04.635Z,1188.00
2019-01-30T10:13:04.632Z,1164.00
2019-01-30T10:14:04.613Z,1144.00
2019-01-30T10:15:04.602Z,1132.00
2019-01-30T10:16:04.611Z,1112.00
2019-01-30T10:17:04.581Z,1092.00
2019-01-30T10:18:04.566Z,1060.00
2019-01-30T10:19:04.559Z,1028.00
2019-01-30T10:20:04.557Z,1012.00
2019-01-30T10:21:04.563Z,1004.00
2019-01-30T10:22:04.531Z,1008.00
2019-01-30T10:23:04.525Z,1008.00
2019-01-30T10:24:04.507Z,1012.00
2019-01-30T10:25:04.497Z,1008.00
2019-01-30T10:26:04.478Z,988.00
2019-01-30T10:27:04.538Z,952.00
2019-01-30T10:28:04.460Z,916.00
2019-01-30T10:29:04.445Z,876.00
2019-01-30T10:30:04.442Z,832.00
2019-01-30T10:31:04.458Z,772.00
2019-01-30T10:32:04.491Z,720.00
2019-01-30T10:33:04.406Z,672.00
2019-01-30T10:34:04.394Z,632.00
2019-01-30T10:35:04.389Z,612.00
2019-01-30T10:36:04.403Z,596.00
2019-01-30T10:37:04.384Z,604.00
2019-01-30T10:38:04.349Z,612.00
2019-01-30T10:39:04.352Z,664.00
2019-01-30T10:40:04.340Z,728.00
2019-01-30T10:41:04.316Z,776.00
2019-01-30T10:42:04.331Z,812.00
2019-01-30T10:43:04.303Z,864.00
2019-01-30T10:44:04.315Z,896.00
2019-01-30T10:45:04.275Z,908.00
2019-01-30T10:46:04.260Z,904.00
2019-01-30T10:47:04.289Z,904.00
2019-01-30T10:48:04.248Z,904.00
2019-01-30T10:49:04.237Z,888.00
2019-01-30T10:50:04.219Z,868.00
2019-01-30T10:51:04.212Z,832.00
2019-01-30T10:52:04.198Z,768.00
2019-01-30T10:53:04.210Z,688.00
2019-01-30T10:54:04.179Z,640.00
2019-01-30T10:55:04.175Z,616.00
2019-01-30T10:56:04.150Z,608.00
2019-01-30T10:57:04.453Z,612.00
2019-01-30T10:58:04.158Z,620.00
2019-01-30T10:59:04.123Z,636.00
2019-01-30T11:00:04.122Z,636.00
2019-01-30T11:01:04.098Z,624.00
2019-01-30T11:02:04.091Z,596.00
2019-01-30T11:03:04.102Z,556.00
2019-01-30T11:04:04.065Z,536.00
2019-01-30T11:05:04.059Z,536.00
2019-01-30T11:06:04.047Z,544.00
2019-01-30T11:07:04.033Z,572.00
2019-01-30T11:08:04.053Z,596.00
2019-01-30T11:09:04.008Z,608.00
2019-01-30T11:10:03.996Z,616.00
2019-01-30T11:11:07.828Z,612.00
2019-01-30T11:12:03.974Z,600.00
2019-01-30T11:13:03.976Z,580.00
2019-01-30T11:14:03.965Z,560.00
2019-01-30T11:15:03.945Z,544.00
2019-01-30T11:16:03.935Z,524.00
2019-01-30T11:17:03.946Z,516.00
2019-01-30T11:18:03.934Z,520.00
2019-01-30T11:19:03.902Z,536.00
2019-01-30T11:20:03.899Z,552.00
2019-01-30T11:21:06.010Z,576.00
2019-01-30T11:22:03.864Z,580.00
2019-01-30T11:23:03.883Z,616.00
2019-01-30T11:24:03.846Z,628.00
2019-01-30T11:25:05.617Z,640.00
2019-01-30T11:26:03.829Z,652.00
2019-01-30T11:27:03.818Z,660.00
2019-01-30T11:28:03.837Z,652.00
2019-01-30T11:29:03.798Z,648.00
2019-01-30T11:30:03.778Z,624.00
2019-01-30T11:31:03.771Z,624.00
2019-01-30T11:32:03.764Z,636.00
2019-01-30T11:33:03.745Z,616.00
2019-01-30T11:34:07.565Z,616.00
2019-01-30T11:35:03.723Z,596.00
2019-01-30T11:36:03.716Z,628.00
2019-01-30T11:37:03.706Z,676.00
2019-01-30T11:38:03.705Z,660.00
2019-01-30T11:39:03.909Z,604.00
2019-01-30T11:40:03.670Z,576.00
2019-01-30T11:41:03.659Z,584.00
2019-01-30T11:42:03.647Z,624.00
2019-01-30T11:43:03.637Z,632.00
2019-01-30T11:44:03.630Z,660.00
2019-01-30T11:45:03.642Z,672.00
2019-01-30T11:46:03.607Z,748.00
2019-01-30T11:47:03.592Z,752.00
2019-01-30T11:48:03.599Z,804.00
2019-01-30T11:49:03.570Z,820.00
2019-01-30T11:50:03.558Z,832.00
2019-01-30T11:51:03.577Z,824.00
2019-01-30T11:52:03.545Z,856.00
2019-01-30T11:53:03.526Z,884.00
2019-01-30T11:54:03.524Z,896.00
2019-01-30T11:55:03.510Z,840.00
2019-01-30T11:56:03.523Z,744.00
2019-01-30T11:57:03.480Z,760.00
2019-01-30T11:58:03.470Z,712.00
2019-01-30T11:59:03.465Z,728.00
2019-01-30T12:00:03.446Z,800.00
2019-01-30T12:01:03.696Z,860.00
2019-01-30T12:02:03.454Z,920.00
2019-01-30T12:03:03.423Z,892.00
2019-01-30T12:04:03.427Z,844.00
2019-01-30T12:05:03.393Z,852.00
2019-01-30T12:06:03.386Z,828.00
2019-01-30T12:07:03.379Z,800.00
2019-01-30T12:08:03.384Z,912.00
2019-01-30T12:09:03.351Z,948.00
2019-01-30T12:10:03.362Z,952.00
2019-01-30T12:11:03.337Z,912.00
2019-01-30T12:12:03.319Z,960.00
2019-01-30T12:13:03.309Z,920.00
2019-01-30T12:14:03.299Z,936.00
2019-01-30T12:15:03.310Z,968.00
2019-01-30T12:16:03.278Z,884.00
2019-01-30T12:17:03.272Z,888.00
2019-01-30T12:18:03.253Z,864.00
2019-01-30T12:19:03.240Z,864.00
2019-01-30T12:20:03.254Z,892.00
2019-01-30T12:21:03.220Z,848.00
2019-01-30T12:22:03.231Z,832.00
2019-01-30T12:23:03.206Z,772.00
2019-01-30T12:24:03.190Z,756.00
2019-01-30T12:25:03.203Z,776.00
2019-01-30T12:26:03.164Z,724.00
2019-01-30T12:27:03.157Z,720.00
2019-01-30T12:28:03.138Z,728.00
2019-01-30T12:29:03.135Z,728.00
2019-01-30T12:30:03.120Z,716.00
2019-01-30T12:31:03.324Z,768.00
2019-01-30T12:32:03.101Z,760.00
2019-01-30T12:33:03.085Z,728.00
2019-01-30T12:34:03.081Z,720.00
2019-01-30T12:35:03.064Z,716.00
2019-01-30T12:36:03.060Z,696.00
2019-01-30T12:37:03.094Z,688.00
2019-01-30T12:38:03.046Z,644.00
2019-01-30T12:39:03.029Z,648.00
2019-01-30T12:40:03.012Z,612.00
2019-01-30T12:41:03.034Z,652.00
2019-01-30T12:42:02.985Z,668.00
2019-01-30T12:43:02.991Z,648.00
2019-01-30T12:44:02.965Z,568.00
2019-01-30T12:45:02.963Z,560.00
2019-01-30T12:46:02.992Z,580.00
2019-01-30T12:47:02.943Z,568.00
2019-01-30T12:48:02.916Z,564.00
2019-01-30T12:49:02.913Z,564.00
2019-01-30T12:50:02.900Z,568.00
2019-01-30T12:51:02.906Z,544.00
2019-01-30T12:52:02.901Z,564.00
2019-01-30T12:53:02.874Z,532.00